createdAt,value
2017-10-23T00:00:50.141Z,1012.42
2017-10-23T00:01:50.075Z,1012.41
2017-10-23T00:02:50.153Z,1012.47
2017-10-23T00:03:50.021Z,1012.45
2017-10-23T00:04:50.069Z,1012.44
2017-10-23T00:05:49.969Z,1012.41
2017-10-23T00:06:49.978Z,1012.43
2017-10-23T00:07:49.933Z,1012.45
2017-10-23T00:08:49.992Z,1012.45
2017-10-23T00:09:49.862Z,1012.43
2017-10-23T00:10:49.904Z,1012.43
2017-10-23T00:11:49.805Z,1012.41
2017-10-23T00:12:49.822Z,1012.40
2017-10-23T00:13:49.753Z,1012.41
2017-10-23T00:14:49.828Z,1012.49
2017-10-23T00:15:49.695Z,1012.48
2017-10-23T00:16:49.740Z,1012.43
2017-10-23T00:17:49.645Z,1012.44
2017-10-23T00:18:49.651Z,1012.42
2017-10-23T00:19:49.589Z,1012.44
2017-10-23T00:20:49.665Z,1012.47
2017-10-23T00:21:49.532Z,1012.46
2017-10-23T00:22:49.576Z,1012.41
2017-10-23T00:23:49.486Z,1012.42
2017-10-23T00:24:49.488Z,1012.43
2017-10-23T00:25:49.436Z,1012.40
2017-10-23T00:26:49.503Z,1012.36
2017-10-23T00:27:49.377Z,1012.46
2017-10-23T00:28:49.413Z,1012.52
2017-10-23T00:29:49.325Z,1012.43
2017-10-23T00:30:49.329Z,1012.44
2017-10-23T00:31:49.271Z,1012.47
2017-10-23T00:32:49.334Z,1012.47
2017-10-23T00:33:49.214Z,1012.45
2017-10-23T00:34:49.249Z,1012.48
2017-10-23T00:35:49.164Z,1012.44
2017-10-23T00:36:49.162Z,1012.45
2017-10-23T00:37:49.111Z,1012.49
2017-10-23T00:38:49.174Z,1012.53
2017-10-23T00:39:49.060Z,1012.51
2017-10-23T00:40:49.085Z,1012.46
2017-10-23T00:41:49.002Z,1012.47
2017-10-23T00:42:48.996Z,1012.48
2017-10-23T00:43:48.947Z,1012.44
2017-10-23T00:44:49.012Z,1012.46
2017-10-23T00:45:48.898Z,1012.53
2017-10-23T00:46:48.923Z,1012.51
2017-10-23T00:47:48.844Z,1012.51
2017-10-23T00:48:48.835Z,1012.62
2017-10-23T00:49:48.786Z,1012.60
2017-10-23T00:50:48.855Z,1012.62
2017-10-23T00:51:48.735Z,1012.64
2017-10-23T00:52:48.761Z,1012.62
2017-10-23T00:53:48.683Z,1012.71
2017-10-23T00:54:48.673Z,1012.66
2017-10-23T00:55:48.629Z,1012.63
2017-10-23T00:56:48.687Z,1012.64
2017-10-23T00:57:48.573Z,1012.64
2017-10-23T00:58:48.606Z,1012.67
2017-10-23T00:59:48.524Z,1012.63
2017-10-23T01:00:48.510Z,1012.65
2017-10-23T01:01:48.465Z,1012.64
2017-10-23T01:02:48.523Z,1012.65
2017-10-23T01:03:48.414Z,1012.70
2017-10-23T01:04:48.438Z,1012.68
2017-10-23T01:05:48.361Z,1012.68
2017-10-23T01:06:48.448Z,1012.69
2017-10-23T01:07:48.310Z,1012.72
2017-10-23T01:08:48.360Z,1012.74
2017-10-23T01:09:48.263Z,1012.72
2017-10-23T01:10:48.271Z,1012.80
2017-10-23T01:11:48.203Z,1012.76
2017-10-23T01:12:48.281Z,1012.71
2017-10-23T01:13:48.155Z,1012.75
2017-10-23T01:14:48.193Z,1012.72
2017-10-23T01:15:48.096Z,1012.78
2017-10-23T01:16:48.107Z,1012.70
2017-10-23T01:17:48.042Z,1012.80
2017-10-23T01:18:48.129Z,1012.75
2017-10-23T01:19:47.987Z,1012.75
2017-10-23T01:20:48.032Z,1012.76
2017-10-23T01:21:47.936Z,1012.71
2017-10-23T01:22:47.946Z,1012.83
2017-10-23T01:23:47.883Z,1012.76
2017-10-23T01:24:47.968Z,1012.79
2017-10-23T01:25:47.835Z,1012.76
2017-10-23T01:26:47.884Z,1012.82
2017-10-23T01:27:47.776Z,1012.81
2017-10-23T01:28:47.781Z,1012.82
2017-10-23T01:29:47.724Z,1012.83
2017-10-23T01:30:47.797Z,1012.82
2017-10-23T01:31:47.678Z,1012.84
2017-10-23T01:32:47.706Z,1012.90
2017-10-23T01:33:47.617Z,1012.87
2017-10-23T01:34:47.618Z,1012.94
2017-10-23T01:35:47.572Z,1012.91
2017-10-23T01:36:47.632Z,1012.91
2017-10-23T01:37:47.512Z,1012.91
2017-10-23T01:38:47.544Z,1012.91
2017-10-23T01:39:47.457Z,1012.93
2017-10-23T01:40:47.454Z,1012.85
2017-10-23T01:41:47.408Z,1012.83
2017-10-23T01:42:47.468Z,1012.83
2017-10-23T01:43:47.354Z,1012.82
2017-10-23T01:44:47.381Z,1012.77
2017-10-23T01:45:47.294Z,1012.75
2017-10-23T01:46:47.292Z,1012.74
2017-10-23T01:47:47.248Z,1012.73
2017-10-23T01:48:47.219Z,1012.74
2017-10-23T01:49:47.188Z,1012.74
2017-10-23T01:50:47.219Z,1012.73
2017-10-23T01:51:47.137Z,1012.71
2017-10-23T01:52:47.129Z,1012.73
2017-10-23T01:53:47.081Z,1012.78
2017-10-23T01:54:47.144Z,1012.74
2017-10-23T01:55:47.029Z,1012.77
2017-10-23T01:56:47.056Z,1012.72
2017-10-23T01:57:46.978Z,1012.74
2017-10-23T01:58:46.964Z,1012.75
2017-10-23T01:59:46.925Z,1012.79
2017-10-23T02:00:46.980Z,1012.81
2017-10-23T02:01:46.865Z,1012.81
2017-10-23T02:02:46.891Z,1012.84
2017-10-23T02:03:46.812Z,1012.78
2017-10-23T02:04:46.809Z,1012.83
2017-10-23T02:05:46.761Z,1012.84
2017-10-23T02:06:46.818Z,1012.83
2017-10-23T02:07:46.707Z,1012.85
2017-10-23T02:08:46.728Z,1012.85
2017-10-23T02:09:46.648Z,1012.86
2017-10-23T02:10:46.641Z,1012.84
2017-10-23T02:11:46.597Z,1012.85
2017-10-23T02:12:46.654Z,1012.82
2017-10-23T02:13:46.542Z,1012.80
2017-10-23T02:14:46.563Z,1012.85
2017-10-23T02:15:46.489Z,1012.87
2017-10-23T02:16:46.476Z,1012.85
2017-10-23T02:17:46.440Z,1012.90
2017-10-23T02:18:46.491Z,1012.93
2017-10-23T02:19:46.377Z,1012.88
2017-10-23T02:20:46.402Z,1012.88
2017-10-23T02:21:46.327Z,1012.88
2017-10-23T02:22:46.312Z,1012.88
2017-10-23T02:23:46.273Z,1012.92
2017-10-23T02:24:46.332Z,1012.92
2017-10-23T02:25:46.221Z,1012.89
2017-10-23T02:26:46.240Z,1012.84
2017-10-23T02:27:46.166Z,1012.90
2017-10-23T02:28:46.151Z,1012.89
2017-10-23T02:29:46.114Z,1012.89
2017-10-23T02:30:46.165Z,1012.90
2017-10-23T02:31:46.063Z,1012.96
2017-10-23T02:32:46.076Z,1012.93
2017-10-23T02:33:46.005Z,1012.97
2017-10-23T02:34:46.089Z,1012.96
2017-10-23T02:35:45.949Z,1012.96
2017-10-23T02:36:46.001Z,1012.98
2017-10-23T02:37:45.900Z,1012.99
2017-10-23T02:38:45.914Z,1012.95
2017-10-23T02:39:45.845Z,1012.92
2017-10-23T02:40:45.927Z,1012.89
2017-10-23T02:41:45.798Z,1012.87
2017-10-23T02:42:45.838Z,1012.91
2017-10-23T02:43:45.743Z,1012.81
2017-10-23T02:44:45.749Z,1012.83
2017-10-23T02:45:45.680Z,1012.85
2017-10-23T02:46:45.763Z,1012.79
2017-10-23T02:47:45.638Z,1012.84
2017-10-23T02:48:45.680Z,1012.83
2017-10-23T02:49:45.576Z,1012.84
2017-10-23T02:50:46.615Z,1012.86
2017-10-23T02:51:45.521Z,1012.87
2017-10-23T02:52:45.606Z,1012.85
2017-10-23T02:53:45.470Z,1012.87
2017-10-23T02:54:45.512Z,1012.87
2017-10-23T02:55:45.416Z,1012.90
2017-10-23T02:56:45.428Z,1012.96
2017-10-23T02:57:45.365Z,1012.91
2017-10-23T02:58:45.434Z,1012.92
2017-10-23T02:59:45.306Z,1012.94
2017-10-23T03:00:45.348Z,1012.96
2017-10-23T03:01:45.271Z,1012.92
2017-10-23T03:02:45.259Z,1012.92
2017-10-23T03:03:45.202Z,1012.96
2017-10-23T03:04:45.273Z,1012.91
2017-10-23T03:05:45.146Z,1012.95
2017-10-23T03:06:45.187Z,1013.09
2017-10-23T03:07:45.095Z,1012.99
2017-10-23T03:08:45.101Z,1012.97
2017-10-23T03:09:45.040Z,1012.95
2017-10-23T03:10:45.108Z,1013.10
2017-10-23T03:11:44.988Z,1013.00
2017-10-23T03:12:45.025Z,1013.04
2017-10-23T03:13:44.931Z,1013.03
2017-10-23T03:14:44.936Z,1013.05
2017-10-23T03:15:44.880Z,1013.01
2017-10-23T03:16:44.954Z,1013.04
2017-10-23T03:17:44.825Z,1013.07
2017-10-23T03:18:44.861Z,1013.07
2017-10-23T03:19:44.769Z,1013.09
2017-10-23T03:20:44.772Z,1013.10
2017-10-23T03:21:44.717Z,1013.13
2017-10-23T03:22:44.786Z,1013.15
2017-10-23T03:23:44.665Z,1013.17
2017-10-23T03:24:44.697Z,1013.15
2017-10-23T03:25:44.621Z,1013.17
2017-10-23T03:26:44.609Z,1013.22
2017-10-23T03:27:44.555Z,1013.17
2017-10-23T03:28:44.622Z,1013.14
2017-10-23T03:29:44.503Z,1013.19
2017-10-23T03:30:44.536Z,1013.18
2017-10-23T03:31:44.446Z,1013.20
2017-10-23T03:32:44.446Z,1013.23
2017-10-23T03:33:44.393Z,1013.29
2017-10-23T03:34:44.458Z,1013.28
2017-10-23T03:35:44.341Z,1013.28
2017-10-23T03:36:44.370Z,1013.25
2017-10-23T03:37:44.286Z,1013.34
2017-10-23T03:38:44.281Z,1013.28
2017-10-23T03:39:44.234Z,1013.29
2017-10-23T03:40:44.294Z,1013.33
2017-10-23T03:41:44.180Z,1013.29
2017-10-23T03:42:44.210Z,1013.32
2017-10-23T03:43:44.126Z,1013.33
2017-10-23T03:44:44.117Z,1013.35
2017-10-23T03:45:44.068Z,1013.39
2017-10-23T03:46:44.131Z,1013.39
2017-10-23T03:47:44.019Z,1013.42
2017-10-23T03:48:44.042Z,1013.39
2017-10-23T03:49:43.965Z,1013.44
2017-10-23T03:50:43.963Z,1013.42
2017-10-23T03:51:43.915Z,1013.41
2017-10-23T03:52:43.967Z,1013.50
2017-10-23T03:53:43.864Z,1013.50
2017-10-23T03:54:43.878Z,1013.55
2017-10-23T03:55:43.801Z,1013.48
2017-10-23T03:56:43.789Z,1013.48
2017-10-23T03:57:43.821Z,1013.52
2017-10-23T03:58:43.928Z,1013.55
2017-10-23T03:59:43.697Z,1013.51
2017-10-23T04:00:43.715Z,1013.50
2017-10-23T04:01:43.639Z,1013.51
2017-10-23T04:02:43.627Z,1013.57
2017-10-23T04:03:43.589Z,1013.57
2017-10-23T04:04:43.645Z,1013.54
2017-10-23T04:05:43.534Z,1013.53
2017-10-23T04:06:43.550Z,1013.54
2017-10-23T04:07:43.478Z,1013.52
2017-10-23T04:08:43.564Z,1013.51
2017-10-23T04:09:43.426Z,1013.55
2017-10-23T04:10:43.478Z,1013.64
2017-10-23T04:11:43.377Z,1013.58
2017-10-23T04:12:43.386Z,1013.57
2017-10-23T04:13:43.332Z,1013.61
2017-10-23T04:14:43.402Z,1013.65
2017-10-23T04:15:43.265Z,1013.63
2017-10-23T04:16:43.313Z,1013.66
2017-10-23T04:17:43.214Z,1013.66
2017-10-23T04:18:43.222Z,1013.65
2017-10-23T04:19:43.157Z,1013.70
2017-10-23T04:20:43.237Z,1013.70
2017-10-23T04:21:43.104Z,1013.64
2017-10-23T04:22:43.149Z,1013.67
2017-10-23T04:23:43.052Z,1013.64
2017-10-23T04:24:43.061Z,1013.69
2017-10-23T04:25:43.000Z,1013.64
2017-10-23T04:26:43.080Z,1013.69
2017-10-23T04:27:42.941Z,1013.60
2017-10-23T04:28:42.992Z,1013.61
2017-10-23T04:29:42.888Z,1013.66
2017-10-23T04:30:42.903Z,1013.69
2017-10-23T04:31:42.839Z,1013.63
2017-10-23T04:32:42.918Z,1013.62
2017-10-23T04:33:42.784Z,1013.65
2017-10-23T04:34:42.828Z,1013.63
2017-10-23T04:35:42.727Z,1013.62
2017-10-23T04:36:42.840Z,1013.63
2017-10-23T04:37:42.679Z,1013.64
2017-10-23T04:38:42.749Z,1013.71
2017-10-23T04:39:42.629Z,1013.71
2017-10-23T04:40:42.659Z,1013.73
2017-10-23T04:41:42.568Z,1013.71
2017-10-23T04:42:42.574Z,1013.73
2017-10-23T04:43:42.521Z,1013.78
2017-10-23T04:44:42.589Z,1013.82
2017-10-23T04:45:42.460Z,1013.74
2017-10-23T04:46:42.500Z,1013.73
2017-10-23T04:47:42.407Z,1013.70
2017-10-23T04:48:42.411Z,1013.70
2017-10-23T04:49:42.360Z,1013.74
2017-10-23T04:50:42.429Z,1013.68
2017-10-23T04:51:42.303Z,1013.72
2017-10-23T04:52:42.337Z,1013.67
2017-10-23T04:53:42.245Z,1013.70
2017-10-23T04:54:42.351Z,1013.71
2017-10-23T04:55:42.190Z,1013.63
2017-10-23T04:56:42.261Z,1013.63
2017-10-23T04:57:42.155Z,1013.63
2017-10-23T04:58:42.175Z,1013.65
2017-10-23T04:59:42.084Z,1013.65
2017-10-23T05:00:42.085Z,1013.65
2017-10-23T05:01:42.035Z,1013.60
2017-10-23T05:02:42.099Z,1013.66
2017-10-23T05:03:41.986Z,1013.64
2017-10-23T05:04:42.010Z,1013.60
2017-10-23T05:05:41.921Z,1013.65
2017-10-23T05:06:41.926Z,1013.63
2017-10-23T05:07:41.877Z,1013.59
2017-10-23T05:08:41.936Z,1013.57
2017-10-23T05:09:41.822Z,1013.57
2017-10-23T05:10:41.856Z,1013.59
2017-10-23T05:11:41.759Z,1013.55
2017-10-23T05:12:41.759Z,1013.51
2017-10-23T05:13:41.711Z,1013.50
2017-10-23T05:14:41.786Z,1013.54
2017-10-23T05:15:41.662Z,1013.57
2017-10-23T05:16:41.684Z,1013.48
2017-10-23T05:17:41.599Z,1013.52
2017-10-23T05:18:41.596Z,1013.53
2017-10-23T05:19:41.545Z,1013.54
2017-10-23T05:20:41.637Z,1013.54
2017-10-23T05:21:41.498Z,1013.54
2017-10-23T05:22:41.518Z,1013.48
2017-10-23T05:23:41.441Z,1013.52
2017-10-23T05:24:41.432Z,1013.48
2017-10-23T05:25:41.388Z,1013.55
2017-10-23T05:26:41.443Z,1013.47
2017-10-23T05:27:41.333Z,1013.52
2017-10-23T05:28:41.359Z,1013.54
2017-10-23T05:29:41.284Z,1013.50
2017-10-23T05:30:41.292Z,1013.54
2017-10-23T05:31:41.227Z,1013.56
2017-10-23T05:32:41.284Z,1013.59
2017-10-23T05:33:41.172Z,1013.61
2017-10-23T05:34:41.194Z,1013.59
2017-10-23T05:35:41.123Z,1013.57
2017-10-23T05:36:41.105Z,1013.64
2017-10-23T05:37:41.066Z,1013.60
2017-10-23T05:38:41.125Z,1013.63
2017-10-23T05:39:41.015Z,1013.63
2017-10-23T05:40:41.030Z,1013.61
2017-10-23T05:41:40.961Z,1013.65
2017-10-23T05:42:41.050Z,1013.67
2017-10-23T05:43:40.905Z,1013.66
2017-10-23T05:44:40.957Z,1013.70
2017-10-23T05:45:40.853Z,1013.72
2017-10-23T05:46:40.871Z,1013.73
2017-10-23T05:47:40.796Z,1013.78
2017-10-23T05:48:40.881Z,1013.76
2017-10-23T05:49:40.744Z,1013.83
2017-10-23T05:50:40.797Z,1013.88
2017-10-23T05:51:40.692Z,1013.84
2017-10-23T05:52:40.705Z,1013.89
2017-10-23T05:53:40.638Z,1013.95
2017-10-23T05:54:40.725Z,1013.96
2017-10-23T05:55:40.587Z,1013.97
2017-10-23T05:56:40.630Z,1013.95
2017-10-23T05:57:40.533Z,1014.00
2017-10-23T05:58:40.543Z,1013.96
2017-10-23T05:59:40.489Z,1013.99
2017-10-23T06:00:40.556Z,1013.97
2017-10-23T06:01:40.423Z,1014.03
2017-10-23T06:02:40.466Z,1014.05
2017-10-23T06:03:40.370Z,1014.02
2017-10-23T06:04:40.377Z,1014.05
2017-10-23T06:05:40.319Z,1014.02
2017-10-23T06:06:40.392Z,1014.05
2017-10-23T06:07:40.267Z,1014.01
2017-10-23T06:08:40.305Z,1014.08
2017-10-23T06:09:40.210Z,1014.07
2017-10-23T06:10:40.213Z,1014.08
2017-10-23T06:11:40.161Z,1014.09
2017-10-23T06:12:40.228Z,1014.08
2017-10-23T06:13:40.110Z,1014.15
2017-10-23T06:14:40.140Z,1014.16
2017-10-23T06:15:40.060Z,1014.14
2017-10-23T06:16:40.050Z,1014.18
2017-10-23T06:17:40.012Z,1014.19
2017-10-23T06:18:40.067Z,1014.15
2017-10-23T06:19:39.947Z,1014.20
2017-10-23T06:20:39.974Z,1014.21
2017-10-23T06:21:39.898Z,1014.26
2017-10-23T06:22:39.888Z,1014.23
2017-10-23T06:23:39.837Z,1014.24
2017-10-23T06:24:39.902Z,1014.29
2017-10-23T06:25:39.785Z,1014.26
2017-10-23T06:26:39.813Z,1014.25
2017-10-23T06:27:39.739Z,1014.21
2017-10-23T06:28:39.828Z,1014.25
2017-10-23T06:29:39.733Z,1014.24
2017-10-23T06:30:39.839Z,1014.27
2017-10-23T06:31:39.623Z,1014.21
2017-10-23T06:32:39.649Z,1014.26
2017-10-23T06:33:39.574Z,1014.24
2017-10-23T06:34:39.560Z,1014.26
2017-10-23T06:35:39.521Z,1014.28
2017-10-23T06:36:39.578Z,1014.30
2017-10-23T06:37:39.464Z,1014.31
2017-10-23T06:38:39.498Z,1014.23
2017-10-23T06:39:39.422Z,1014.25
2017-10-23T06:40:39.398Z,1014.23
2017-10-23T06:41:39.358Z,1014.24
2017-10-23T06:42:39.411Z,1014.23
2017-10-23T06:43:39.307Z,1014.26
2017-10-23T06:44:39.327Z,1014.26
2017-10-23T06:45:39.255Z,1014.21
2017-10-23T06:46:39.336Z,1014.22
2017-10-23T06:47:39.201Z,1014.20
2017-10-23T06:48:39.249Z,1014.21
2017-10-23T06:49:39.149Z,1014.21
2017-10-23T06:50:39.161Z,1014.26
2017-10-23T06:51:39.095Z,1014.28
2017-10-23T06:52:39.177Z,1014.33
2017-10-23T06:53:39.040Z,1014.33
2017-10-23T06:54:39.086Z,1014.38
2017-10-23T06:55:38.985Z,1014.37
2017-10-23T06:56:39.000Z,1014.35
2017-10-23T06:57:38.938Z,1014.40
2017-10-23T06:58:39.010Z,1014.34
2017-10-23T06:59:38.881Z,1014.41
2017-10-23T07:00:38.924Z,1014.40
2017-10-23T07:01:38.829Z,1014.43
2017-10-23T07:02:38.837Z,1014.46
2017-10-23T07:03:38.795Z,1014.41
2017-10-23T07:04:38.852Z,1014.41
2017-10-23T07:05:38.725Z,1014.49
2017-10-23T07:06:38.761Z,1014.48
2017-10-23T07:07:38.673Z,1014.44
2017-10-23T07:08:38.676Z,1014.46
2017-10-23T07:09:38.616Z,1014.45
2017-10-23T07:10:38.837Z,1014.42
2017-10-23T07:11:38.569Z,1014.44
2017-10-23T07:12:38.597Z,1014.43
2017-10-23T07:13:38.519Z,1014.41
2017-10-23T07:14:38.547Z,1014.42
2017-10-23T07:15:38.457Z,1014.41
2017-10-23T07:16:38.524Z,1014.40
2017-10-23T07:17:38.407Z,1014.42
2017-10-23T07:18:38.436Z,1014.37
2017-10-23T07:19:38.357Z,1014.37
2017-10-23T07:20:38.346Z,1014.37
2017-10-23T07:21:38.301Z,1014.37
2017-10-23T07:22:38.363Z,1014.40
2017-10-23T07:23:38.246Z,1014.33
2017-10-23T07:24:38.275Z,1014.38
2017-10-23T07:25:38.192Z,1014.41
2017-10-23T07:26:38.191Z,1014.37
2017-10-23T07:27:38.141Z,1014.36
2017-10-23T07:28:38.203Z,1014.39
2017-10-23T07:29:38.087Z,1014.40
2017-10-23T07:30:38.108Z,1014.37
2017-10-23T07:31:38.036Z,1014.39
2017-10-23T07:32:38.125Z,1014.40
2017-10-23T07:33:37.983Z,1014.43
2017-10-23T07:34:38.051Z,1014.44
2017-10-23T07:35:37.952Z,1014.42
2017-10-23T07:36:37.955Z,1014.41
2017-10-23T07:37:37.877Z,1014.41
2017-10-23T07:38:37.966Z,1014.43
2017-10-23T07:39:37.833Z,1014.49
2017-10-23T07:40:37.879Z,1014.52
2017-10-23T07:41:37.791Z,1014.46
2017-10-23T07:42:37.786Z,1014.44
2017-10-23T07:43:37.721Z,1014.49
2017-10-23T07:44:37.801Z,1014.52
2017-10-23T07:45:37.664Z,1014.53
2017-10-23T07:46:37.710Z,1014.48
2017-10-23T07:47:37.614Z,1014.53
2017-10-23T07:48:37.625Z,1014.56
2017-10-23T07:49:37.562Z,1014.50
2017-10-23T07:50:37.635Z,1014.52
2017-10-23T07:51:37.506Z,1014.55
2017-10-23T07:52:37.545Z,1014.52
2017-10-23T07:53:37.456Z,1014.57
2017-10-23T07:54:37.463Z,1014.59
2017-10-23T07:55:37.403Z,1014.57
2017-10-23T07:56:37.474Z,1014.58
2017-10-23T07:57:37.352Z,1014.63
2017-10-23T07:58:37.382Z,1014.54
2017-10-23T07:59:37.307Z,1014.56
2017-10-23T08:00:37.296Z,1014.50
2017-10-23T08:01:37.248Z,1014.57
2017-10-23T08:02:37.311Z,1014.53
2017-10-23T08:03:37.194Z,1014.58
2017-10-23T08:04:37.222Z,1014.58
2017-10-23T08:05:37.142Z,1014.59
2017-10-23T08:06:37.122Z,1014.62
2017-10-23T08:07:37.090Z,1014.60
2017-10-23T08:08:37.145Z,1014.60
2017-10-23T08:09:37.035Z,1014.64
2017-10-23T08:10:37.060Z,1014.55
2017-10-23T08:11:36.987Z,1014.57
2017-10-23T08:12:37.071Z,1014.62
2017-10-23T08:13:36.934Z,1014.67
2017-10-23T08:14:36.979Z,1014.71
2017-10-23T08:15:36.884Z,1014.67
2017-10-23T08:16:36.894Z,1014.66
2017-10-23T08:17:36.826Z,1014.65
2017-10-23T08:18:36.821Z,1014.62
2017-10-23T08:19:36.812Z,1014.62
2017-10-23T08:20:36.752Z,1014.61
2017-10-23T08:21:36.824Z,1014.69
2017-10-23T08:22:36.699Z,1014.72
2017-10-23T08:23:36.673Z,1014.69
2017-10-23T08:24:36.653Z,1014.66
2017-10-23T08:25:36.648Z,1014.75
2017-10-23T08:26:36.595Z,1014.68
2017-10-23T08:27:36.660Z,1014.75
2017-10-23T08:28:36.581Z,1014.73
2017-10-23T08:29:36.522Z,1014.78
2017-10-23T08:30:36.581Z,1014.69
2017-10-23T08:31:36.467Z,1014.70
2017-10-23T08:32:36.491Z,1014.65
2017-10-23T08:33:36.419Z,1014.74
2017-10-23T08:34:36.396Z,1014.75
2017-10-23T08:35:36.410Z,1014.75
2017-10-23T08:36:36.341Z,1014.78
2017-10-23T08:37:36.425Z,1014.80
2017-10-23T08:38:36.289Z,1014.84
2017-10-23T08:39:36.439Z,1014.79
2017-10-23T08:40:36.239Z,1014.81
2017-10-23T08:41:36.350Z,1014.88
2017-10-23T08:42:36.189Z,1014.73
2017-10-23T08:43:36.164Z,1014.80
2017-10-23T08:44:36.136Z,1014.82
2017-10-23T08:45:36.171Z,1014.88
2017-10-23T08:46:36.088Z,1014.91
2017-10-23T08:47:36.082Z,1014.97
2017-10-23T08:48:36.032Z,1015.04
2017-10-23T08:49:36.011Z,1014.90
2017-10-23T08:50:36.002Z,1014.91
2017-10-23T08:51:35.959Z,1014.95
2017-10-23T08:52:36.015Z,1014.91
2017-10-23T08:53:35.911Z,1014.97
2017-10-23T08:54:35.927Z,1015.00
2017-10-23T08:55:35.858Z,1015.01
2017-10-23T08:56:35.939Z,1015.00
2017-10-23T08:57:35.807Z,1015.07
2017-10-23T08:58:35.862Z,1015.04
2017-10-23T08:59:35.785Z,1015.02
2017-10-23T09:00:35.768Z,1014.99
2017-10-23T09:01:35.704Z,1015.01
2017-10-23T09:02:35.777Z,1015.03
2017-10-23T09:03:35.662Z,1015.00
2017-10-23T09:04:35.690Z,1015.05
2017-10-23T09:05:35.612Z,1015.22
2017-10-23T09:06:35.614Z,1015.11
2017-10-23T09:07:35.560Z,1015.07
2017-10-23T09:08:35.617Z,1015.09
2017-10-23T09:09:35.513Z,1015.03
2017-10-23T09:10:35.526Z,1015.02
2017-10-23T09:11:35.467Z,1015.08
2017-10-23T09:12:35.542Z,1015.06
2017-10-23T09:13:35.413Z,1015.09
2017-10-23T09:14:35.451Z,1015.06
2017-10-23T09:15:35.366Z,1015.02
2017-10-23T09:16:35.364Z,1015.00
2017-10-23T09:17:35.318Z,1015.00
2017-10-23T09:18:35.382Z,1015.00
2017-10-23T09:19:35.272Z,1014.97
2017-10-23T09:20:35.289Z,1014.99
2017-10-23T09:21:35.220Z,1014.99
2017-10-23T09:22:35.306Z,1015.00
2017-10-23T09:23:35.174Z,1015.02
2017-10-23T09:24:35.215Z,1014.97
2017-10-23T09:25:35.118Z,1015.04
2017-10-23T09:26:35.125Z,1015.06
2017-10-23T09:27:35.080Z,1014.99
2017-10-23T09:28:35.185Z,1014.96
2017-10-23T09:29:35.029Z,1014.99
2017-10-23T09:30:35.057Z,1015.10
2017-10-23T09:31:34.975Z,1015.02
2017-10-23T09:32:35.066Z,1015.03
2017-10-23T09:33:34.927Z,1015.09
2017-10-23T09:34:34.978Z,1015.08
2017-10-23T09:35:34.883Z,1015.11
2017-10-23T09:36:34.887Z,1015.17
2017-10-23T09:37:34.841Z,1015.21
2017-10-23T09:38:34.903Z,1015.12
2017-10-23T09:39:34.785Z,1015.17
2017-10-23T09:40:34.808Z,1015.14
2017-10-23T09:41:34.736Z,1015.30
2017-10-23T09:42:34.826Z,1015.17
2017-10-23T09:43:34.691Z,1015.12
2017-10-23T09:44:34.737Z,1015.10
2017-10-23T09:45:34.643Z,1015.12
2017-10-23T09:46:34.648Z,1015.15
2017-10-23T09:47:34.591Z,1015.18
2017-10-23T09:48:34.665Z,1015.11
2017-10-23T09:49:34.541Z,1015.10
2017-10-23T09:50:34.577Z,1015.15
2017-10-23T09:51:34.494Z,1015.23
2017-10-23T09:52:34.487Z,1015.16
2017-10-23T09:53:34.447Z,1015.19
2017-10-23T09:54:34.499Z,1015.13
2017-10-23T09:55:34.398Z,1015.15
2017-10-23T09:56:34.412Z,1015.18
2017-10-23T09:57:34.367Z,1015.18
2017-10-23T09:58:34.425Z,1015.18
2017-10-23T09:59:34.314Z,1015.22
2017-10-23T10:00:34.338Z,1015.23
2017-10-23T10:01:34.252Z,1015.28
2017-10-23T10:02:34.248Z,1015.26
2017-10-23T10:03:34.207Z,1015.28
2017-10-23T10:04:34.263Z,1015.28
2017-10-23T10:05:34.151Z,1015.22
2017-10-23T10:06:34.174Z,1015.25
2017-10-23T10:07:34.115Z,1015.24
2017-10-23T10:08:34.191Z,1015.33
2017-10-23T10:09:34.058Z,1015.27
2017-10-23T10:10:35.125Z,1015.28
2017-10-23T10:11:34.016Z,1015.30
2017-10-23T10:12:34.012Z,1015.31
2017-10-23T10:13:33.965Z,1015.39
2017-10-23T10:14:34.020Z,1015.37
2017-10-23T10:15:33.914Z,1015.32
2017-10-23T10:16:33.935Z,1015.33
2017-10-23T10:17:33.865Z,1015.47
2017-10-23T10:18:33.950Z,1015.43
2017-10-23T10:19:33.828Z,1015.42
2017-10-23T10:20:33.863Z,1015.39
2017-10-23T10:21:33.767Z,1015.43
2017-10-23T10:22:33.774Z,1015.45
2017-10-23T10:23:33.719Z,1015.44
2017-10-23T10:24:33.787Z,1015.40
2017-10-23T10:25:33.671Z,1015.44
2017-10-23T10:26:33.707Z,1015.53
2017-10-23T10:27:33.617Z,1015.45
2017-10-23T10:28:34.635Z,1015.52
2017-10-23T10:29:33.596Z,1015.45
2017-10-23T10:30:33.624Z,1015.50
2017-10-23T10:31:33.521Z,1015.93
2017-10-23T10:32:33.534Z,1016.57
2017-10-23T10:33:33.478Z,1015.64
2017-10-23T10:34:33.548Z,1015.61
2017-10-23T10:35:33.435Z,1015.63
2017-10-23T10:36:33.465Z,1016.13
2017-10-23T10:37:33.416Z,1016.17
2017-10-23T10:38:33.379Z,1015.77
2017-10-23T10:39:33.330Z,1015.74
2017-10-23T10:40:33.389Z,1015.58
2017-10-23T10:41:33.285Z,1015.58
2017-10-23T10:42:33.298Z,1015.56
2017-10-23T10:43:33.270Z,1015.63
2017-10-23T10:44:33.311Z,1015.67
2017-10-23T10:45:33.192Z,1015.65
2017-10-23T10:46:33.227Z,1015.72
2017-10-23T10:47:33.149Z,1015.68
2017-10-23T10:48:33.236Z,1015.66
2017-10-23T10:49:33.097Z,1015.63
2017-10-23T10:50:33.146Z,1015.52
2017-10-23T10:51:33.055Z,1015.59
2017-10-23T10:52:33.058Z,1015.60
2017-10-23T10:53:33.010Z,1015.57
2017-10-23T10:54:33.072Z,1015.63
2017-10-23T10:55:33.000Z,1015.62
2017-10-23T10:56:32.986Z,1016.78
2017-10-23T10:57:32.914Z,1016.91
2017-10-23T10:58:33.009Z,1016.87
2017-10-23T10:59:32.877Z,1016.89
2017-10-23T11:00:32.908Z,1015.74
2017-10-23T11:01:32.841Z,1015.73
2017-10-23T11:02:32.827Z,1015.69
2017-10-23T11:03:32.782Z,1015.68
2017-10-23T11:04:32.843Z,1015.68
2017-10-23T11:05:32.740Z,1015.77
2017-10-23T11:06:32.748Z,1015.68
2017-10-23T11:07:32.695Z,1015.66
2017-10-23T11:08:32.763Z,1015.67
2017-10-23T11:09:32.661Z,1015.72
2017-10-23T11:10:32.673Z,1015.77
2017-10-23T11:11:32.620Z,1015.78
2017-10-23T11:12:32.688Z,1015.76
2017-10-23T11:13:32.565Z,1015.77
2017-10-23T11:14:32.637Z,1015.73
2017-10-23T11:15:32.538Z,1015.77
2017-10-23T11:16:32.607Z,1015.73
2017-10-23T11:17:32.473Z,1015.73
2017-10-23T11:18:32.523Z,1015.81
2017-10-23T11:19:32.432Z,1015.81
2017-10-23T11:20:32.435Z,1015.76
2017-10-23T11:21:32.399Z,1015.74
2017-10-23T11:22:32.449Z,1015.77
2017-10-23T11:23:32.346Z,1015.74
2017-10-23T11:24:32.360Z,1015.77
2017-10-23T11:25:32.292Z,1015.79
2017-10-23T11:26:32.375Z,1015.79
2017-10-23T11:27:32.252Z,1015.79
2017-10-23T11:28:32.283Z,1015.76
2017-10-23T11:29:32.199Z,1015.76
2017-10-23T11:30:32.204Z,1015.77
2017-10-23T11:31:32.151Z,1015.77
2017-10-23T11:32:32.208Z,1015.74
2017-10-23T11:33:32.110Z,1015.76
2017-10-23T11:34:32.119Z,1015.75
2017-10-23T11:35:32.060Z,1015.85
2017-10-23T11:36:32.136Z,1015.75
2017-10-23T11:37:32.014Z,1015.77
2017-10-23T11:38:32.052Z,1015.77
2017-10-23T11:39:31.966Z,1015.84
2017-10-23T11:40:31.958Z,1015.79
2017-10-23T11:41:31.923Z,1015.73
2017-10-23T11:42:31.971Z,1015.75
2017-10-23T11:43:31.872Z,1015.77
2017-10-23T11:44:31.884Z,1015.71
2017-10-23T11:45:31.824Z,1015.74
2017-10-23T11:46:31.912Z,1015.82
2017-10-23T11:47:31.778Z,1015.68
2017-10-23T11:48:31.810Z,1015.67
2017-10-23T11:49:31.731Z,1015.66
2017-10-23T11:50:31.722Z,1015.62
2017-10-23T11:51:31.684Z,1015.66
2017-10-23T11:52:31.734Z,1015.72
2017-10-23T11:53:31.657Z,1015.63
2017-10-23T11:54:31.647Z,1015.58
2017-10-23T11:55:31.588Z,1015.67
2017-10-23T11:56:32.581Z,1015.69
2017-10-23T11:57:31.543Z,1015.69
2017-10-23T11:58:31.569Z,1015.68
2017-10-23T11:59:31.500Z,1015.70
2017-10-23T12:00:31.587Z,1015.63
2017-10-23T12:01:31.448Z,1015.69
2017-10-23T12:02:31.495Z,1015.64
2017-10-23T12:03:31.405Z,1015.59
2017-10-23T12:04:31.539Z,1015.61
2017-10-23T12:05:31.356Z,1015.58